sensor_id;sensor_type;location;lat;lon;timestamp;temperature;humidity
50067;DHT22;35952;52.524;13.340;2023-01-26T00:00:52;1.40;99.90
50067;DHT22;35952;52.524;13.340;2023-01-26T00:03:18;1.40;99.90
50067;DHT22;35952;52.524;13.340;2023-01-26T00:05:44;1.40;99.90
50067;DHT22;35952;52.524;13.340;2023-01-26T00:08:10;1.40;99.90
50067;DHT22;35952;52.524;13.340;2023-01-26T00:10:37;1.50;99.90
50067;DHT22;35952;52.524;13.340;2023-01-26T00:13:09;1.40;99.90
50067;DHT22;35952;52.524;13.340;2023-01-26T00:15:35;1.40;99.90
50067;DHT22;35952;52.524;13.340;2023-01-26T00:18:02;1.40;99.90
50067;DHT22;35952;52.524;13.340;2023-01-26T00:20:28;1.40;99.90
50067;DHT22;35952;52.524;13.340;2023-01-26T00:22:54;1.40;99.90
50067;DHT22;35952;52.524;13.340;2023-01-26T00:25:19;1.40;99.90
50067;DHT22;35952;52.524;13.340;2023-01-26T00:27:45;1.40;99.90
50067;DHT22;35952;52.524;13.340;2023-01-26T00:30:11;1.30;99.90
50067;DHT22;35952;52.524;13.340;2023-01-26T00:32:37;1.40;99.90
50067;DHT22;35952;52.524;13.340;2023-01-26T00:35:03;1.40;99.90
50067;DHT22;35952;52.524;13.340;2023-01-26T00:37:29;1.40;99.90
50067;DHT22;35952;52.524;13.340;2023-01-26T00:39:55;1.40;99.90
50067;DHT22;35952;52.524;13.340;2023-01-26T00:42:20;1.30;99.90
50067;DHT22;35952;52.524;13.340;2023-01-26T00:44:48;1.30;99.90
50067;DHT22;35952;52.524;13.340;2023-01-26T00:47:14;1.30;99.90
50067;DHT22;35952;52.524;13.340;2023-01-26T00:49:39;1.30;99.90
50067;DHT22;35952;52.524;13.340;2023-01-26T00:52:05;1.20;99.90
50067;DHT22;35952;52.524;13.340;2023-01-26T00:54:31;1.30;99.90
50067;DHT22;35952;52.524;13.340;2023-01-26T00:56:57;1.30;99.90
50067;DHT22;35952;52.524;13.340;2023-01-26T00:59:22;1.40;99.90
50067;DHT22;35952;52.524;13.340;2023-01-26T01:01:49;1.40;99.90
50067;DHT22;35952;52.524;13.340;2023-01-26T01:04:15;1.40;99.90
50067;DHT22;35952;52.524;13.340;2023-01-26T01:06:41;1.40;99.90
50067;DHT22;35952;52.524;13.340;2023-01-26T01:09:06;1.30;99.90
50067;DHT22;35952;52.524;13.340;2023-01-26T01:11:32;1.40;99.90
50067;DHT22;35952;52.524;13.340;2023-01-26T01:13:58;1.40;99.90
50067;DHT22;35952;52.524;13.340;2023-01-26T01:16:24;1.40;99.90
50067;DHT22;35952;52.524;13.340;2023-01-26T01:18:52;1.30;99.90
50067;DHT22;35952;52.524;13.340;2023-01-26T01:21:18;1.20;99.90
50067;DHT22;35952;52.524;13.340;2023-01-26T01:23:44;1.20;99.90
50067;DHT22;35952;52.524;13.340;2023-01-26T01:26:10;1.10;99.90
50067;DHT22;35952;52.524;13.340;2023-01-26T01:28:36;1.30;99.90
50067;DHT22;35952;52.524;13.340;2023-01-26T01:31:04;1.30;99.90
50067;DHT22;35952;52.524;13.340;2023-01-26T01:33:29;1.20;99.90
50067;DHT22;35952;52.524;13.340;2023-01-26T01:36:02;1.30;99.90
50067;DHT22;35952;52.524;13.340;2023-01-26T01:38:28;1.30;99.90
50067;DHT22;35952;52.524;13.340;2023-01-26T01:40:54;1.30;99.90
50067;DHT22;35952;52.524;13.340;2023-01-26T01:43:20;1.30;99.90
50067;DHT22;35952;52.524;13.340;2023-01-26T01:45:47;1.40;99.90
50067;DHT22;35952;52.524;13.340;2023-01-26T01:48:24;1.30;99.90
50067;DHT22;35952;52.524;13.340;2023-01-26T01:50:55;1.30;99.90
50067;DHT22;35952;52.524;13.340;2023-01-26T01:53:26;1.30;99.90
50067;DHT22;35952;52.524;13.340;2023-01-26T01:55:56;1.30;99.90
50067;DHT22;35952;52.524;13.340;2023-01-26T01:58:22;1.40;99.90
50067;DHT22;35952;52.524;13.340;2023-01-26T02:00:48;1.50;99.90
50067;DHT22;35952;52.524;13.340;2023-01-26T02:03:15;1.50;99.90
50067;DHT22;35952;52.524;13.340;2023-01-26T02:05:53;1.50;99.90
50067;DHT22;35952;52.524;13.340;2023-01-26T02:08:24;1.50;99.90
50067;DHT22;35952;52.524;13.340;2023-01-26T02:10:53;1.50;99.90
50067;DHT22;35952;52.524;13.340;2023-01-26T02:13:21;1.50;99.90
50067;DHT22;35952;52.524;13.340;2023-01-26T02:15:48;1.50;99.90
50067;DHT22;35952;52.524;13.340;2023-01-26T02:18:16;1.40;99.90
50067;DHT22;35952;52.524;13.340;2023-01-26T02:20:49;1.40;99.90
50067;DHT22;35952;52.524;13.340;2023-01-26T02:23:53;1.30;99.90
50067;DHT22;35952;52.524;13.340;2023-01-26T02:26:26;1.10;99.90
50067;DHT22;35952;52.524;13.340;2023-01-26T02:28:52;1.40;99.90
50067;DHT22;35952;52.524;13.340;2023-01-26T02:31:18;1.30;99.90
50067;DHT22;35952;52.524;13.340;2023-01-26T02:33:44;1.40;99.90
50067;DHT22;35952;52.524;13.340;2023-01-26T02:36:31;1.40;99.90
50067;DHT22;35952;52.524;13.340;2023-01-26T02:39:18;1.40;99.90
50067;DHT22;35952;52.524;13.340;2023-01-26T02:41:45;1.30;99.90
50067;DHT22;35952;52.524;13.340;2023-01-26T02:44:31;1.20;99.90
50067;DHT22;35952;52.524;13.340;2023-01-26T02:46:57;1.20;99.90
50067;DHT22;35952;52.524;13.340;2023-01-26T02:49:22;1.20;99.90
50067;DHT22;35952;52.524;13.340;2023-01-26T02:52:07;1.20;99.90
50067;DHT22;35952;52.524;13.340;2023-01-26T02:54:33;1.20;99.90
50067;DHT22;35952;52.524;13.340;2023-01-26T02:57:18;1.30;99.90
50067;DHT22;35952;52.524;13.340;2023-01-26T02:59:43;1.20;99.90
50067;DHT22;35952;52.524;13.340;2023-01-26T03:02:09;1.30;99.90
50067;DHT22;35952;52.524;13.340;2023-01-26T03:04:35;1.30;99.90
50067;DHT22;35952;52.524;13.340;2023-01-26T03:07:00;1.30;99.90
50067;DHT22;35952;52.524;13.340;2023-01-26T03:09:26;1.20;99.90
50067;DHT22;35952;52.524;13.340;2023-01-26T03:11:51;1.30;99.90
50067;DHT22;35952;52.524;13.340;2023-01-26T03:14:17;1.20;99.90
50067;DHT22;35952;52.524;13.340;2023-01-26T03:16:43;1.20;99.90
50067;DHT22;35952;52.524;13.340;2023-01-26T03:19:12;1.20;99.90
50067;DHT22;35952;52.524;13.340;2023-01-26T03:21:56;1.30;99.90
50067;DHT22;35952;52.524;13.340;2023-01-26T03:24:41;1.30;99.90
50067;DHT22;35952;52.524;13.340;2023-01-26T03:27:25;1.20;99.90
50067;DHT22;35952;52.524;13.340;2023-01-26T03:29:51;1.20;99.90
50067;DHT22;35952;52.524;13.340;2023-01-26T03:32:16;1.20;99.90
50067;DHT22;35952;52.524;13.340;2023-01-26T03:34:42;1.20;99.90
50067;DHT22;35952;52.524;13.340;2023-01-26T03:37:08;1.20;99.90
50067;DHT22;35952;52.524;13.340;2023-01-26T03:39:33;1.30;99.90
50067;DHT22;35952;52.524;13.340;2023-01-26T03:42:17;1.20;99.90
50067;DHT22;35952;52.524;13.340;2023-01-26T03:45:01;1.30;99.90
50067;DHT22;35952;52.524;13.340;2023-01-26T03:47:45;1.30;99.90
50067;DHT22;35952;52.524;13.340;2023-01-26T03:50:29;1.10;99.90
50067;DHT22;35952;52.524;13.340;2023-01-26T03:53:14;1.10;99.90
50067;DHT22;35952;52.524;13.340;2023-01-26T03:55:58;1.20;99.90
50067;DHT22;35952;52.524;13.340;2023-01-26T03:59:05;1.20;99.90
50067;DHT22;35952;52.524;13.340;2023-01-26T04:01:41;1.20;99.90
50067;DHT22;35952;52.524;13.340;2023-01-26T04:04:09;1.10;99.90
50067;DHT22;35952;52.524;13.340;2023-01-26T04:06:53;1.10;99.90
50067;DHT22;35952;52.524;13.340;2023-01-26T04:09:37;1.00;99.90
50067;DHT22;35952;52.524;13.340;2023-01-26T04:12:06;1.20;99.90
50067;DHT22;35952;52.524;13.340;2023-01-26T04:14:34;1.20;99.90
50067;DHT22;35952;52.524;13.340;2023-01-26T04:17:18;1.20;99.90
50067;DHT22;35952;52.524;13.340;2023-01-26T04:20:07;1.30;99.90
50067;DHT22;35952;52.524;13.340;2023-01-26T04:22:52;1.20;99.90
50067;DHT22;35952;52.524;13.340;2023-01-26T04:25:19;1.30;99.90
50067;DHT22;35952;52.524;13.340;2023-01-26T04:27:44;1.20;99.90
50067;DHT22;35952;52.524;13.340;2023-01-26T04:30:12;1.00;99.90
50067;DHT22;35952;52.524;13.340;2023-01-26T04:32:38;1.20;99.90
50067;DHT22;35952;52.524;13.340;2023-01-26T04:35:05;1.20;99.90
50067;DHT22;35952;52.524;13.340;2023-01-26T04:37:31;1.10;99.90
50067;DHT22;35952;52.524;13.340;2023-01-26T04:39:57;1.30;99.90
50067;DHT22;35952;52.524;13.340;2023-01-26T04:42:23;1.10;99.90
50067;DHT22;35952;52.524;13.340;2023-01-26T04:44:50;1.20;99.90
50067;DHT22;35952;52.524;13.340;2023-01-26T04:47:16;1.30;99.90
50067;DHT22;35952;52.524;13.340;2023-01-26T04:49:41;1.20;99.90
50067;DHT22;35952;52.524;13.340;2023-01-26T04:52:07;1.20;99.90
50067;DHT22;35952;52.524;13.340;2023-01-26T04:54:32;1.20;99.90
50067;DHT22;35952;52.524;13.340;2023-01-26T04:56:58;1.30;99.90
50067;DHT22;35952;52.524;13.340;2023-01-26T04:59:23;1.30;99.90
50067;DHT22;35952;52.524;13.340;2023-01-26T05:01:49;1.30;99.90
50067;DHT22;35952;52.524;13.340;2023-01-26T05:04:14;1.30;99.90
50067;DHT22;35952;52.524;13.340;2023-01-26T05:06:40;1.30;99.90
50067;DHT22;35952;52.524;13.340;2023-01-26T05:09:08;1.30;99.90
50067;DHT22;35952;52.524;13.340;2023-01-26T05:11:34;1.40;99.90
50067;DHT22;35952;52.524;13.340;2023-01-26T05:13:59;1.40;99.90
50067;DHT22;35952;52.524;13.340;2023-01-26T05:16:25;1.30;99.90
50067;DHT22;35952;52.524;13.340;2023-01-26T05:18:52;1.40;99.90
50067;DHT22;35952;52.524;13.340;2023-01-26T05:21:18;1.30;99.90
50067;DHT22;35952;52.524;13.340;2023-01-26T05:23:43;1.20;99.90
50067;DHT22;35952;52.524;13.340;2023-01-26T05:26:09;1.10;99.90
50067;DHT22;35952;52.524;13.340;2023-01-26T05:28:34;1.20;99.90
50067;DHT22;35952;52.524;13.340;2023-01-26T05:31:00;1.20;99.90
50067;DHT22;35952;52.524;13.340;2023-01-26T05:33:26;1.30;99.90
50067;DHT22;35952;52.524;13.340;2023-01-26T05:35:51;1.30;99.90
50067;DHT22;35952;52.524;13.340;2023-01-26T05:38:17;1.30;99.90
50067;DHT22;35952;52.524;13.340;2023-01-26T05:40:43;1.40;99.90
50067;DHT22;35952;52.524;13.340;2023-01-26T05:43:09;1.30;99.90
50067;DHT22;35952;52.524;13.340;2023-01-26T05:45:35;1.30;99.90
50067;DHT22;35952;52.524;13.340;2023-01-26T05:48:01;1.30;99.90
50067;DHT22;35952;52.524;13.340;2023-01-26T05:50:26;1.30;99.90
50067;DHT22;35952;52.524;13.340;2023-01-26T05:52:52;1.30;99.90
50067;DHT22;35952;52.524;13.340;2023-01-26T05:55:18;1.20;99.90
50067;DHT22;35952;52.524;13.340;2023-01-26T05:57:44;1.10;99.90
50067;DHT22;35952;52.524;13.340;2023-01-26T06:00:10;1.20;99.90
50067;DHT22;35952;52.524;13.340;2023-01-26T06:02:36;1.10;99.90
50067;DHT22;35952;52.524;13.340;2023-01-26T06:05:02;1.10;99.90
50067;DHT22;35952;52.524;13.340;2023-01-26T06:07:28;1.10;99.90
50067;DHT22;35952;52.524;13.340;2023-01-26T06:09:53;1.20;99.90
50067;DHT22;35952;52.524;13.340;2023-01-26T06:12:20;1.10;99.90
50067;DHT22;35952;52.524;13.340;2023-01-26T06:14:46;1.20;99.90
50067;DHT22;35952;52.524;13.340;2023-01-26T06:17:13;1.30;99.90
50067;DHT22;35952;52.524;13.340;2023-01-26T06:19:39;1.30;99.90
50067;DHT22;35952;52.524;13.340;2023-01-26T06:22:11;1.30;99.90
50067;DHT22;35952;52.524;13.340;2023-01-26T06:24:37;1.30;99.90
50067;DHT22;35952;52.524;13.340;2023-01-26T06:27:03;1.30;99.90
50067;DHT22;35952;52.524;13.340;2023-01-26T06:29:31;1.20;99.90
50067;DHT22;35952;52.524;13.340;2023-01-26T06:31:58;1.30;99.90
50067;DHT22;35952;52.524;13.340;2023-01-26T06:34:23;1.30;99.90
50067;DHT22;35952;52.524;13.340;2023-01-26T06:36:49;1.30;99.90
50067;DHT22;35952;52.524;13.340;2023-01-26T06:39:14;1.20;99.90
50067;DHT22;35952;52.524;13.340;2023-01-26T06:41:41;1.20;99.90
50067;DHT22;35952;52.524;13.340;2023-01-26T06:44:07;1.20;99.90
50067;DHT22;35952;52.524;13.340;2023-01-26T06:46:33;1.20;99.90
50067;DHT22;35952;52.524;13.340;2023-01-26T06:49:03;1.20;99.90
50067;DHT22;35952;52.524;13.340;2023-01-26T06:54:03;1.30;99.90
50067;DHT22;35952;52.524;13.340;2023-01-26T06:56:28;1.20;99.90
50067;DHT22;35952;52.524;13.340;2023-01-26T06:58:54;1.10;99.90
50067;DHT22;35952;52.524;13.340;2023-01-26T07:01:22;1.10;99.90
50067;DHT22;35952;52.524;13.340;2023-01-26T07:03:53;1.00;99.90
50067;DHT22;35952;52.524;13.340;2023-01-26T07:06:19;1.10;99.90
50067;DHT22;35952;52.524;13.340;2023-01-26T07:08:44;1.10;99.90
50067;DHT22;35952;52.524;13.340;2023-01-26T07:11:11;1.00;99.90
50067;DHT22;35952;52.524;13.340;2023-01-26T07:13:37;1.00;99.90
50067;DHT22;35952;52.524;13.340;2023-01-26T07:16:09;1.00;99.90
50067;DHT22;35952;52.524;13.340;2023-01-26T07:18:35;1.00;99.90
50067;DHT22;35952;52.524;13.340;2023-01-26T07:21:06;1.00;99.90
50067;DHT22;35952;52.524;13.340;2023-01-26T07:23:33;1.00;99.90
50067;DHT22;35952;52.524;13.340;2023-01-26T07:25:59;0.90;99.90
50067;DHT22;35952;52.524;13.340;2023-01-26T07:28:25;1.00;99.90
50067;DHT22;35952;52.524;13.340;2023-01-26T07:30:52;1.10;99.90
50067;DHT22;35952;52.524;13.340;2023-01-26T07:33:18;1.10;99.90
50067;DHT22;35952;52.524;13.340;2023-01-26T07:35:43;1.00;99.90
50067;DHT22;35952;52.524;13.340;2023-01-26T07:38:09;1.00;99.90
50067;DHT22;35952;52.524;13.340;2023-01-26T07:40:34;1.00;99.90
50067;DHT22;35952;52.524;13.340;2023-01-26T07:43:00;1.00;99.90
50067;DHT22;35952;52.524;13.340;2023-01-26T07:45:26;1.00;99.90
50067;DHT22;35952;52.524;13.340;2023-01-26T07:47:55;1.10;99.90
50067;DHT22;35952;52.524;13.340;2023-01-26T07:50:21;1.00;99.90
50067;DHT22;35952;52.524;13.340;2023-01-26T07:52:47;1.10;99.90
50067;DHT22;35952;52.524;13.340;2023-01-26T07:55:13;1.10;99.90
50067;DHT22;35952;52.524;13.340;2023-01-26T07:57:39;1.00;99.90
50067;DHT22;35952;52.524;13.340;2023-01-26T08:00:06;0.90;99.90
50067;DHT22;35952;52.524;13.340;2023-01-26T08:02:32;1.00;99.90
50067;DHT22;35952;52.524;13.340;2023-01-26T08:04:57;1.00;99.90
50067;DHT22;35952;52.524;13.340;2023-01-26T08:07:24;1.00;99.90
50067;DHT22;35952;52.524;13.340;2023-01-26T08:09:50;1.10;99.90
50067;DHT22;35952;52.524;13.340;2023-01-26T08:12:15;1.10;99.90
50067;DHT22;35952;52.524;13.340;2023-01-26T08:14:41;1.00;99.90
50067;DHT22;35952;52.524;13.340;2023-01-26T08:17:06;1.10;99.90
50067;DHT22;35952;52.524;13.340;2023-01-26T08:19:32;1.10;99.90
50067;DHT22;35952;52.524;13.340;2023-01-26T08:21:57;1.10;99.90
50067;DHT22;35952;52.524;13.340;2023-01-26T08:24:23;1.00;99.90
50067;DHT22;35952;52.524;13.340;2023-01-26T08:26:48;0.90;99.90
50067;DHT22;35952;52.524;13.340;2023-01-26T08:29:14;0.90;99.90
50067;DHT22;35952;52.524;13.340;2023-01-26T08:31:40;1.00;99.90
50067;DHT22;35952;52.524;13.340;2023-01-26T08:34:05;0.90;99.90
50067;DHT22;35952;52.524;13.340;2023-01-26T08:36:31;1.00;99.90
50067;DHT22;35952;52.524;13.340;2023-01-26T08:38:57;1.00;99.90
50067;DHT22;35952;52.524;13.340;2023-01-26T08:41:22;1.00;99.90
50067;DHT22;35952;52.524;13.340;2023-01-26T08:43:49;1.00;99.90
50067;DHT22;35952;52.524;13.340;2023-01-26T08:46:15;1.00;99.90
50067;DHT22;35952;52.524;13.340;2023-01-26T08:48:41;0.90;99.90
50067;DHT22;35952;52.524;13.340;2023-01-26T08:51:07;1.00;99.90
50067;DHT22;35952;52.524;13.340;2023-01-26T08:53:34;1.00;99.90
50067;DHT22;35952;52.524;13.340;2023-01-26T08:56:04;0.90;99.90
50067;DHT22;35952;52.524;13.340;2023-01-26T08:58:30;0.80;99.90
50067;DHT22;35952;52.524;13.340;2023-01-26T09:00:57;0.80;99.90
50067;DHT22;35952;52.524;13.340;2023-01-26T09:03:22;0.80;99.90
50067;DHT22;35952;52.524;13.340;2023-01-26T09:05:48;0.80;99.90
50067;DHT22;35952;52.524;13.340;2023-01-26T09:08:13;0.80;99.90
50067;DHT22;35952;52.524;13.340;2023-01-26T09:10:39;0.80;99.90
50067;DHT22;35952;52.524;13.340;2023-01-26T09:13:05;0.80;99.90
50067;DHT22;35952;52.524;13.340;2023-01-26T09:15:30;0.80;99.90
50067;DHT22;35952;52.524;13.340;2023-01-26T09:17:56;0.70;99.90
50067;DHT22;35952;52.524;13.340;2023-01-26T09:20:21;0.70;99.90
50067;DHT22;35952;52.524;13.340;2023-01-26T09:22:47;0.70;99.90
50067;DHT22;35952;52.524;13.340;2023-01-26T09:25:13;0.70;99.90
50067;DHT22;35952;52.524;13.340;2023-01-26T09:27:39;0.60;99.90
50067;DHT22;35952;52.524;13.340;2023-01-26T09:30:06;0.70;99.90
50067;DHT22;35952;52.524;13.340;2023-01-26T09:32:32;0.80;99.90
50067;DHT22;35952;52.524;13.340;2023-01-26T09:34:58;0.80;99.90
50067;DHT22;35952;52.524;13.340;2023-01-26T09:37:24;0.80;99.90
50067;DHT22;35952;52.524;13.340;2023-01-26T09:39:49;0.90;99.90
50067;DHT22;35952;52.524;13.340;2023-01-26T09:47:55;0.90;99.90
50067;DHT22;35952;52.524;13.340;2023-01-26T09:50:27;0.80;99.90
50067;DHT22;35952;52.524;13.340;2023-01-26T09:53:01;0.80;99.90
50067;DHT22;35952;52.524;13.340;2023-01-26T09:55:28;0.80;99.90
50067;DHT22;35952;52.524;13.340;2023-01-26T09:58:20;0.80;99.90
50067;DHT22;35952;52.524;13.340;2023-01-26T10:00:51;0.70;99.90
50067;DHT22;35952;52.524;13.340;2023-01-26T10:03:38;0.70;99.90
50067;DHT22;35952;52.524;13.340;2023-01-26T10:06:23;0.70;99.90
50067;DHT22;35952;52.524;13.340;2023-01-26T10:08:53;0.40;99.90
50067;DHT22;35952;52.524;13.340;2023-01-26T10:13:55;0.70;99.90
50067;DHT22;35952;52.524;13.340;2023-01-26T10:16:21;0.80;99.90
50067;DHT22;35952;52.524;13.340;2023-01-26T10:21:24;0.80;99.90
50067;DHT22;35952;52.524;13.340;2023-01-26T10:23:51;0.80;99.90
50067;DHT22;35952;52.524;13.340;2023-01-26T10:26:21;0.70;99.90
50067;DHT22;35952;52.524;13.340;2023-01-26T10:28:50;0.70;99.90
50067;DHT22;35952;52.524;13.340;2023-01-26T10:31:21;0.80;99.90
50067;DHT22;35952;52.524;13.340;2023-01-26T10:33:53;0.80;99.90
50067;DHT22;35952;52.524;13.340;2023-01-26T10:36:19;0.80;99.90
50067;DHT22;35952;52.524;13.340;2023-01-26T10:38:45;0.90;99.90
50067;DHT22;35952;52.524;13.340;2023-01-26T10:46:41;0.70;99.90
50067;DHT22;35952;52.524;13.340;2023-01-26T10:51:43;0.90;99.90
50067;DHT22;35952;52.524;13.340;2023-01-26T10:56:58;0.90;99.90
50067;DHT22;35952;52.524;13.340;2023-01-26T10:59:47;1.00;99.90
50067;DHT22;35952;52.524;13.340;2023-01-26T11:02:18;0.90;99.90
50067;DHT22;35952;52.524;13.340;2023-01-26T11:05:24;0.90;99.90
50067;DHT22;35952;52.524;13.340;2023-01-26T11:07:54;1.00;99.90
50067;DHT22;35952;52.524;13.340;2023-01-26T11:10:37;1.00;99.90
50067;DHT22;35952;52.524;13.340;2023-01-26T11:13:18;1.00;99.90
50067;DHT22;35952;52.524;13.340;2023-01-26T11:15:47;1.00;99.90
50067;DHT22;35952;52.524;13.340;2023-01-26T11:21:39;0.70;99.90
50067;DHT22;35952;52.524;13.340;2023-01-26T11:29:59;1.00;99.90
50067;DHT22;35952;52.524;13.340;2023-01-26T11:38:27;1.00;99.90
50067;DHT22;35952;52.524;13.340;2023-01-26T11:44:06;1.00;99.90
50067;DHT22;35952;52.524;13.340;2023-01-26T11:46:54;1.00;99.90
50067;DHT22;35952;52.524;13.340;2023-01-26T11:52:39;1.10;99.90
50067;DHT22;35952;52.524;13.340;2023-01-26T11:55:24;1.10;99.90
50067;DHT22;35952;52.524;13.340;2023-01-26T12:01:05;1.10;99.90
50067;DHT22;35952;52.524;13.340;2023-01-26T12:03:47;1.10;99.90
50067;DHT22;35952;52.524;13.340;2023-01-26T12:06:17;1.10;99.90
50067;DHT22;35952;52.524;13.340;2023-01-26T12:08:59;1.10;99.90
50067;DHT22;35952;52.524;13.340;2023-01-26T12:14:20;1.20;99.90
50067;DHT22;35952;52.524;13.340;2023-01-26T12:17:17;1.20;99.90
50067;DHT22;35952;52.524;13.340;2023-01-26T12:20:02;1.20;99.90
50067;DHT22;35952;52.524;13.340;2023-01-26T12:22:48;1.10;99.90
50067;DHT22;35952;52.524;13.340;2023-01-26T12:25:32;1.20;99.90
50067;DHT22;35952;52.524;13.340;2023-01-26T12:28:17;1.30;99.90
50067;DHT22;35952;52.524;13.340;2023-01-26T12:31:07;1.30;99.90
50067;DHT22;35952;52.524;13.340;2023-01-26T12:33:36;1.40;99.90
50067;DHT22;35952;52.524;13.340;2023-01-26T12:39:06;1.50;99.90
50067;DHT22;35952;52.524;13.340;2023-01-26T12:41:59;1.40;99.90
50067;DHT22;35952;52.524;13.340;2023-01-26T12:47:23;1.60;99.90
50067;DHT22;35952;52.524;13.340;2023-01-26T12:55:11;1.40;99.90
50067;DHT22;35952;52.524;13.340;2023-01-26T12:57:46;1.50;99.90
50067;DHT22;35952;52.524;13.340;2023-01-26T13:00:24;1.30;99.90
50067;DHT22;35952;52.524;13.340;2023-01-26T13:02:57;1.40;99.90
50067;DHT22;35952;52.524;13.340;2023-01-26T13:05:26;1.50;99.90
50067;DHT22;35952;52.524;13.340;2023-01-26T13:07:52;1.50;99.90
50067;DHT22;35952;52.524;13.340;2023-01-26T13:10:26;1.60;99.90
50067;DHT22;35952;52.524;13.340;2023-01-26T13:12:56;1.50;99.90
50067;DHT22;35952;52.524;13.340;2023-01-26T13:15:27;1.50;99.90
50067;DHT22;35952;52.524;13.340;2023-01-26T13:18:01;1.50;99.90
50067;DHT22;35952;52.524;13.340;2023-01-26T13:20:40;1.40;99.90
50067;DHT22;35952;52.524;13.340;2023-01-26T13:23:38;1.40;99.90
50067;DHT22;35952;52.524;13.340;2023-01-26T13:26:20;1.50;99.90
50067;DHT22;35952;52.524;13.340;2023-01-26T13:28:48;1.40;99.90
50067;DHT22;35952;52.524;13.340;2023-01-26T13:31:30;1.40;99.90
50067;DHT22;35952;52.524;13.340;2023-01-26T13:33:59;1.40;99.90
50067;DHT22;35952;52.524;13.340;2023-01-26T13:36:28;1.30;99.90
50067;DHT22;35952;52.524;13.340;2023-01-26T13:39:17;1.30;99.90
50067;DHT22;35952;52.524;13.340;2023-01-26T13:41:47;1.10;99.90
50067;DHT22;35952;52.524;13.340;2023-01-26T13:44:19;1.20;99.90
50067;DHT22;35952;52.524;13.340;2023-01-26T13:46:52;1.30;99.90
50067;DHT22;35952;52.524;13.340;2023-01-26T13:49:46;1.30;99.90
50067;DHT22;35952;52.524;13.340;2023-01-26T13:52:21;1.30;99.90
50067;DHT22;35952;52.524;13.340;2023-01-26T13:54:48;1.30;99.90
50067;DHT22;35952;52.524;13.340;2023-01-26T13:57:27;1.30;99.90
50067;DHT22;35952;52.524;13.340;2023-01-26T13:59:59;1.20;99.90
50067;DHT22;35952;52.524;13.340;2023-01-26T14:02:28;1.20;99.90
50067;DHT22;35952;52.524;13.340;2023-01-26T14:04:56;1.10;99.90
50067;DHT22;35952;52.524;13.340;2023-01-26T14:07:34;1.20;99.90
50067;DHT22;35952;52.524;13.340;2023-01-26T14:10:02;1.20;99.90
50067;DHT22;35952;52.524;13.340;2023-01-26T14:12:35;1.20;99.90
50067;DHT22;35952;52.524;13.340;2023-01-26T14:15:05;1.20;99.90
50067;DHT22;35952;52.524;13.340;2023-01-26T14:17:45;1.10;99.90
50067;DHT22;35952;52.524;13.340;2023-01-26T14:20:23;1.10;99.90
50067;DHT22;35952;52.524;13.340;2023-01-26T14:25:28;1.10;99.90
50067;DHT22;35952;52.524;13.340;2023-01-26T14:27:53;1.10;99.90
50067;DHT22;35952;52.524;13.340;2023-01-26T14:32:47;1.10;99.90
50067;DHT22;35952;52.524;13.340;2023-01-26T14:35:18;1.00;99.90
50067;DHT22;35952;52.524;13.340;2023-01-26T14:37:46;1.00;99.90
50067;DHT22;35952;52.524;13.340;2023-01-26T14:40:21;0.90;99.90
50067;DHT22;35952;52.524;13.340;2023-01-26T14:42:49;1.10;99.90
50067;DHT22;35952;52.524;13.340;2023-01-26T14:45:17;1.10;99.90
50067;DHT22;35952;52.524;13.340;2023-01-26T14:47:43;1.10;99.90
50067;DHT22;35952;52.524;13.340;2023-01-26T14:50:19;1.10;99.90
50067;DHT22;35952;52.524;13.340;2023-01-26T14:52:47;1.00;99.90
50067;DHT22;35952;52.524;13.340;2023-01-26T14:57:49;1.10;99.90
50067;DHT22;35952;52.524;13.340;2023-01-26T15:00:21;1.10;99.90
50067;DHT22;35952;52.524;13.340;2023-01-26T15:02:48;0.90;99.90
50067;DHT22;35952;52.524;13.340;2023-01-26T15:05:18;1.00;99.90
50067;DHT22;35952;52.524;13.340;2023-01-26T15:07:49;1.10;99.90
50067;DHT22;35952;52.524;13.340;2023-01-26T15:10:34;1.10;99.90
50067;DHT22;35952;52.524;13.340;2023-01-26T15:15:45;1.00;99.90
50067;DHT22;35952;52.524;13.340;2023-01-26T15:20:55;0.90;99.90
50067;DHT22;35952;52.524;13.340;2023-01-26T15:23:29;0.80;99.90
50067;DHT22;35952;52.524;13.340;2023-01-26T15:26:03;0.70;99.90
50067;DHT22;35952;52.524;13.340;2023-01-26T15:28:30;0.70;99.90
50067;DHT22;35952;52.524;13.340;2023-01-26T15:30:56;0.70;99.90
50067;DHT22;35952;52.524;13.340;2023-01-26T15:33:38;0.80;99.90
50067;DHT22;35952;52.524;13.340;2023-01-26T15:36:04;0.70;99.90
50067;DHT22;35952;52.524;13.340;2023-01-26T15:38:30;0.70;99.90
50067;DHT22;35952;52.524;13.340;2023-01-26T15:40:55;0.80;99.90
50067;DHT22;35952;52.524;13.340;2023-01-26T15:43:21;0.80;99.90
50067;DHT22;35952;52.524;13.340;2023-01-26T15:45:54;0.80;99.90
50067;DHT22;35952;52.524;13.340;2023-01-26T15:48:21;0.80;99.90
50067;DHT22;35952;52.524;13.340;2023-01-26T15:50:47;0.80;99.90
50067;DHT22;35952;52.524;13.340;2023-01-26T15:53:14;0.70;99.90
50067;DHT22;35952;52.524;13.340;2023-01-26T15:55:40;0.70;99.90
50067;DHT22;35952;52.524;13.340;2023-01-26T15:58:06;0.70;99.90
50067;DHT22;35952;52.524;13.340;2023-01-26T16:00:32;0.70;99.90
50067;DHT22;35952;52.524;13.340;2023-01-26T16:02:57;0.70;99.90
50067;DHT22;35952;52.524;13.340;2023-01-26T16:05:23;0.60;99.90
50067;DHT22;35952;52.524;13.340;2023-01-26T16:07:49;0.60;99.90
50067;DHT22;35952;52.524;13.340;2023-01-26T16:10:15;0.60;99.90
50067;DHT22;35952;52.524;13.340;2023-01-26T16:12:42;0.70;99.90
50067;DHT22;35952;52.524;13.340;2023-01-26T16:15:31;0.70;99.90
50067;DHT22;35952;52.524;13.340;2023-01-26T16:18:02;0.70;99.90
50067;DHT22;35952;52.524;13.340;2023-01-26T16:20:27;0.70;99.90
50067;DHT22;35952;52.524;13.340;2023-01-26T16:22:53;0.70;99.90
50067;DHT22;35952;52.524;13.340;2023-01-26T16:25:25;0.60;99.90
50067;DHT22;35952;52.524;13.340;2023-01-26T16:27:51;0.60;99.90
50067;DHT22;35952;52.524;13.340;2023-01-26T16:30:17;0.60;99.90
50067;DHT22;35952;52.524;13.340;2023-01-26T16:32:43;0.60;99.90
50067;DHT22;35952;52.524;13.340;2023-01-26T16:35:11;0.60;99.90
50067;DHT22;35952;52.524;13.340;2023-01-26T16:37:37;0.60;99.90
50067;DHT22;35952;52.524;13.340;2023-01-26T16:40:02;0.50;99.90
50067;DHT22;35952;52.524;13.340;2023-01-26T16:42:28;0.50;99.90
50067;DHT22;35952;52.524;13.340;2023-01-26T16:44:53;0.50;99.90
50067;DHT22;35952;52.524;13.340;2023-01-26T16:47:19;0.60;99.90
50067;DHT22;35952;52.524;13.340;2023-01-26T16:49:44;0.70;99.90
50067;DHT22;35952;52.524;13.340;2023-01-26T16:52:10;0.70;99.90
50067;DHT22;35952;52.524;13.340;2023-01-26T16:54:36;0.70;99.90
50067;DHT22;35952;52.524;13.340;2023-01-26T16:57:01;0.70;99.90
50067;DHT22;35952;52.524;13.340;2023-01-26T16:59:27;0.70;99.90
50067;DHT22;35952;52.524;13.340;2023-01-26T17:01:53;0.70;99.90